createdAt,value
2023-05-10T00:01:05.935Z,11.13
2023-05-10T00:04:07.893Z,11.19
2023-05-10T00:07:09.744Z,11.25
2023-05-10T00:10:12.215Z,11.27
2023-05-10T00:13:14.209Z,11.29
2023-05-10T00:16:16.197Z,11.33
2023-05-10T00:19:17.937Z,11.28
2023-05-10T00:22:19.715Z,11.28
2023-05-10T00:25:22.654Z,11.31
2023-05-10T00:28:24.570Z,11.21
2023-05-10T00:31:26.463Z,11.25
2023-05-10T00:34:28.263Z,11.24
2023-05-10T00:37:30.137Z,11.19
2023-05-10T00:40:31.996Z,11.07
2023-05-10T00:43:33.734Z,10.94
2023-05-10T00:46:35.862Z,10.85
2023-05-10T00:49:37.845Z,10.77
2023-05-10T00:52:39.630Z,10.73
2023-05-10T00:55:41.491Z,10.70
2023-05-10T00:58:43.610Z,10.63
2023-05-10T01:01:48.579Z,10.56
2023-05-10T01:04:50.897Z,10.52
2023-05-10T01:07:52.666Z,10.45
2023-05-10T01:10:54.999Z,10.43
2023-05-10T01:13:57.686Z,10.35
2023-05-10T01:16:59.849Z,10.29
2023-05-10T01:20:01.824Z,10.23
2023-05-10T01:23:27.700Z,10.21
2023-05-10T01:26:50.882Z,10.13
2023-05-10T01:30:18.184Z,10.05
2023-05-10T01:33:32.002Z,9.93
2023-05-10T01:36:42.774Z,9.91
2023-05-10T01:39:48.415Z,9.92
2023-05-10T01:42:53.484Z,9.92
2023-05-10T01:46:17.828Z,9.89
2023-05-10T01:49:27.556Z,9.85
2023-05-10T01:52:34.700Z,9.86
2023-05-10T01:55:41.121Z,9.84
2023-05-10T01:58:46.570Z,9.82
2023-05-10T02:01:48.921Z,9.86
2023-05-10T02:04:52.354Z,9.94
2023-05-10T02:07:54.803Z,9.99
2023-05-10T02:10:57.321Z,10.00
2023-05-10T02:14:00.127Z,10.09
2023-05-10T02:17:03.458Z,10.12
2023-05-10T02:20:07.778Z,10.12
2023-05-10T02:23:09.888Z,10.19
2023-05-10T02:26:13.008Z,10.18
2023-05-10T02:29:15.584Z,10.19
2023-05-10T02:32:17.663Z,10.21
2023-05-10T02:35:20.297Z,10.26
2023-05-10T02:38:23.839Z,10.19
2023-05-10T02:41:27.348Z,10.34
2023-05-10T02:44:32.023Z,10.31
2023-05-10T02:47:34.021Z,10.38
2023-05-10T02:50:36.829Z,10.36
2023-05-10T02:53:39.847Z,10.40
2023-05-10T02:56:44.336Z,10.42
2023-05-10T02:59:46.440Z,10.36
2023-05-10T03:02:48.347Z,10.39
2023-05-10T03:05:50.173Z,10.39
2023-05-10T03:08:51.941Z,10.38
2023-05-10T03:12:03.877Z,10.37
2023-05-10T03:15:23.620Z,10.41
2023-05-10T03:19:03.245Z,10.35
2023-05-10T03:22:07.061Z,10.32
2023-05-10T03:25:12.006Z,10.29
2023-05-10T03:28:15.782Z,10.29
2023-05-10T03:31:18.677Z,10.37
2023-05-10T03:34:31.495Z,10.39
2023-05-10T03:37:33.243Z,10.36
2023-05-10T03:40:35.132Z,10.37
2023-05-10T03:43:37.584Z,10.42
2023-05-10T03:46:39.385Z,10.42
2023-05-10T03:49:41.594Z,10.50
2023-05-10T03:52:43.368Z,10.43
2023-05-10T03:55:45.851Z,10.44
2023-05-10T03:58:48.012Z,10.36
2023-05-10T04:06:13.329Z,10.28
2023-05-10T04:09:15.128Z,10.23
2023-05-10T04:12:16.870Z,10.29
2023-05-10T04:15:18.772Z,10.31
2023-05-10T04:18:20.669Z,10.34
2023-05-10T04:21:22.464Z,10.35
2023-05-10T04:24:24.459Z,10.31
2023-05-10T04:27:26.288Z,10.33
2023-05-10T04:30:30.176Z,10.28
2023-05-10T04:33:32.087Z,10.34
2023-05-10T04:36:36.317Z,10.34
2023-05-10T04:39:39.630Z,10.43
2023-05-10T04:42:42.696Z,10.45
2023-05-10T04:45:44.438Z,10.50
2023-05-10T04:48:46.241Z,10.58
2023-05-10T04:51:47.980Z,10.63
2023-05-10T04:54:49.782Z,10.98
2023-05-10T04:57:51.704Z,11.65
2023-05-10T05:00:53.465Z,11.59
2023-05-10T05:03:55.536Z,11.55
2023-05-10T05:06:57.414Z,11.37
2023-05-10T05:09:59.177Z,11.29
2023-05-10T05:13:00.959Z,11.31
2023-05-10T05:16:03.741Z,11.44
2023-05-10T05:19:06.415Z,11.44
2023-05-10T05:22:09.636Z,11.41
2023-05-10T05:25:12.668Z,11.49
2023-05-10T05:28:14.491Z,11.71
2023-05-10T05:31:16.439Z,11.76
2023-05-10T05:34:18.500Z,12.13
2023-05-10T05:37:22.339Z,12.65
2023-05-10T05:40:24.248Z,12.69
2023-05-10T05:43:26.389Z,12.73
2023-05-10T05:46:28.178Z,12.59
2023-05-10T05:49:30.171Z,12.55
2023-05-10T05:52:32.038Z,12.66
2023-05-10T05:55:33.803Z,12.63
2023-05-10T05:58:35.601Z,12.69
2023-05-10T06:01:37.439Z,12.88
2023-05-10T06:04:41.568Z,13.30
2023-05-10T06:07:47.021Z,13.55
2023-05-10T06:10:48.887Z,14.10
2023-05-10T06:13:50.759Z,14.29
2023-05-10T06:16:52.659Z,14.49
2023-05-10T06:19:54.401Z,14.54
2023-05-10T06:22:56.182Z,14.67
2023-05-10T06:25:57.918Z,14.62
2023-05-10T06:28:59.716Z,14.97
2023-05-10T06:32:01.573Z,15.28
2023-05-10T06:35:03.639Z,15.43
2023-05-10T06:38:05.569Z,15.83
2023-05-10T06:41:07.368Z,15.54
2023-05-10T06:44:09.460Z,15.95
2023-05-10T06:47:11.291Z,15.31
2023-05-10T06:50:13.074Z,15.64
2023-05-10T06:53:14.959Z,15.75
2023-05-10T06:56:31.117Z,15.46
2023-05-10T06:59:33.171Z,16.25
2023-05-10T07:02:35.015Z,16.66
2023-05-10T07:05:37.126Z,16.37
2023-05-10T07:08:38.925Z,16.60
2023-05-10T07:11:40.705Z,17.01
2023-05-10T07:14:42.715Z,16.93
2023-05-10T07:17:45.894Z,17.00
2023-05-10T07:20:47.986Z,17.35
2023-05-10T07:23:50.510Z,17.67
2023-05-10T07:26:52.405Z,17.26
2023-05-10T07:29:54.192Z,17.51
2023-05-10T07:32:56.451Z,17.36
2023-05-10T07:35:58.463Z,16.48
2023-05-10T07:39:00.355Z,16.84
2023-05-10T07:42:02.096Z,16.65
2023-05-10T07:45:04.183Z,15.89
2023-05-10T07:48:06.241Z,16.58
2023-05-10T07:51:10.373Z,16.65
2023-05-10T07:54:12.354Z,17.06
2023-05-10T07:57:16.370Z,16.79
2023-05-10T08:00:19.708Z,16.25
2023-05-10T08:03:21.495Z,16.45
2023-05-10T08:06:23.407Z,16.42
2023-05-10T08:09:25.569Z,16.40
2023-05-10T08:12:27.356Z,16.36
2023-05-10T08:15:29.147Z,16.03
2023-05-10T08:18:30.916Z,16.23
2023-05-10T08:21:32.722Z,16.02
2023-05-10T08:24:39.156Z,16.41
2023-05-10T08:27:41.285Z,16.47
2023-05-10T08:30:43.070Z,16.59
2023-05-10T08:33:45.032Z,16.78
2023-05-10T08:36:46.720Z,17.41
2023-05-10T08:39:49.015Z,17.18
2023-05-10T08:43:00.401Z,17.72
2023-05-10T08:46:05.105Z,17.83
2023-05-10T08:49:11.106Z,17.66
2023-05-10T08:52:14.276Z,17.05
2023-05-10T08:55:16.997Z,17.52
2023-05-10T08:58:20.481Z,17.61
2023-05-10T09:01:22.583Z,18.00
2023-05-10T09:04:24.713Z,18.28
2023-05-10T09:07:26.727Z,18.17
2023-05-10T09:10:29.309Z,17.50
2023-05-10T09:13:31.326Z,17.98
2023-05-10T09:16:33.192Z,17.76
2023-05-10T09:19:35.070Z,17.58
2023-05-10T09:22:37.230Z,17.18
2023-05-10T09:25:39.731Z,17.43
2023-05-10T09:28:52.494Z,17.95
2023-05-10T09:31:57.225Z,17.49
2023-05-10T09:35:07.517Z,17.47
2023-05-10T09:38:09.474Z,17.33
2023-05-10T09:41:20.382Z,17.40
2023-05-10T09:44:22.148Z,17.34
2023-05-10T09:47:25.116Z,17.48
2023-05-10T09:50:27.640Z,17.22
2023-05-10T09:53:29.464Z,17.34
2023-05-10T09:56:36.483Z,17.80
2023-05-10T09:59:43.815Z,17.56
2023-05-10T10:03:06.523Z,17.61
2023-05-10T10:06:18.707Z,17.90
2023-05-10T10:09:28.679Z,18.42
2023-05-10T10:12:30.523Z,18.30
2023-05-10T10:15:34.025Z,18.32
2023-05-10T10:18:39.824Z,18.48
2023-05-10T10:21:41.685Z,18.82
2023-05-10T10:24:44.145Z,18.92
2023-05-10T10:27:57.870Z,18.88
2023-05-10T10:31:04.866Z,18.20
2023-05-10T10:34:08.150Z,18.46
2023-05-10T10:37:09.968Z,18.77
2023-05-10T10:40:44.076Z,18.26
2023-05-10T10:43:46.395Z,18.80
2023-05-10T10:47:13.292Z,19.33
2023-05-10T10:50:17.103Z,18.52
2023-05-10T10:53:18.988Z,19.31
2023-05-10T10:56:24.602Z,19.48
2023-05-10T10:59:29.421Z,18.77
2023-05-10T11:02:54.745Z,19.26
2023-05-10T11:05:59.709Z,18.80
2023-05-10T11:09:10.927Z,18.55
2023-05-10T11:12:13.953Z,19.77
2023-05-10T11:15:15.907Z,19.72
2023-05-10T11:18:19.865Z,19.41
2023-05-10T11:21:21.843Z,20.08
2023-05-10T11:24:24.204Z,19.22
2023-05-10T11:27:26.191Z,18.90
2023-05-10T11:30:28.120Z,19.09
2023-05-10T11:33:30.261Z,19.28
2023-05-10T11:36:36.900Z,19.68
2023-05-10T11:39:38.806Z,19.40
2023-05-10T11:42:40.750Z,19.83
2023-05-10T11:45:42.595Z,19.28
2023-05-10T11:48:44.709Z,19.80
2023-05-10T11:51:46.903Z,19.19
2023-05-10T11:54:53.374Z,18.99
2023-05-10T11:57:55.834Z,18.70
2023-05-10T12:00:58.316Z,18.68
2023-05-10T12:04:01.205Z,18.51
2023-05-10T12:07:03.366Z,19.04
2023-05-10T12:10:09.482Z,18.71
2023-05-10T12:13:16.389Z,18.75
2023-05-10T12:16:20.267Z,18.62
2023-05-10T12:19:22.263Z,18.43
2023-05-10T12:22:24.152Z,18.53
2023-05-10T12:25:31.924Z,18.45
2023-05-10T12:28:34.459Z,18.38
2023-05-10T12:31:53.085Z,18.44
2023-05-10T12:34:55.389Z,18.67
2023-05-10T12:37:57.174Z,18.66
2023-05-10T12:41:03.879Z,18.56
2023-05-10T12:44:05.819Z,18.57
2023-05-10T12:47:07.754Z,18.49
2023-05-10T12:50:09.947Z,18.55
2023-05-10T12:53:11.818Z,18.50
2023-05-10T12:56:13.543Z,18.52
2023-05-10T12:59:15.379Z,18.65
2023-05-10T13:02:19.103Z,18.37
2023-05-10T13:05:20.951Z,18.27
2023-05-10T13:08:22.789Z,18.07
2023-05-10T13:11:24.738Z,18.34
2023-05-10T13:14:26.684Z,18.41
2023-05-10T13:17:28.498Z,18.46
2023-05-10T13:20:30.320Z,18.22
2023-05-10T13:23:32.222Z,18.28
2023-05-10T13:26:34.481Z,18.58
2023-05-10T13:29:36.286Z,18.61
2023-05-10T13:32:38.331Z,18.53
2023-05-10T13:35:40.094Z,18.45
2023-05-10T13:38:41.948Z,18.42
2023-05-10T13:41:43.831Z,18.51
2023-05-10T13:44:46.703Z,18.71
2023-05-10T13:47:48.722Z,19.17
2023-05-10T13:50:50.691Z,19.13
2023-05-10T13:53:53.223Z,19.21
2023-05-10T13:56:55.250Z,19.14
2023-05-10T13:59:58.315Z,19.27
2023-05-10T14:03:00.532Z,19.32
2023-05-10T14:06:02.556Z,19.46
2023-05-10T14:09:04.931Z,19.11
2023-05-10T14:12:06.807Z,19.30
2023-05-10T14:15:11.503Z,19.58
2023-05-10T14:18:13.419Z,19.67
2023-05-10T14:21:16.393Z,19.51
2023-05-10T14:24:18.596Z,19.43
2023-05-10T14:27:20.519Z,19.06
2023-05-10T14:30:22.324Z,18.77
2023-05-10T14:33:24.068Z,18.70
2023-05-10T14:36:25.866Z,18.52
2023-05-10T14:39:30.572Z,18.39
2023-05-10T14:42:32.468Z,18.48
2023-05-10T14:45:34.546Z,18.55
2023-05-10T14:48:36.804Z,18.67
2023-05-10T14:51:38.647Z,18.84
2023-05-10T14:54:41.257Z,18.68
2023-05-10T14:57:43.198Z,18.56
2023-05-10T15:00:45.180Z,18.47
2023-05-10T15:03:47.503Z,18.12
2023-05-10T15:06:49.740Z,17.99
2023-05-10T15:09:52.826Z,17.94
2023-05-10T15:12:54.645Z,17.86
2023-05-10T15:15:56.750Z,17.87
2023-05-10T15:18:58.606Z,17.84
2023-05-10T15:22:00.496Z,17.88
2023-05-10T15:25:03.190Z,17.96
2023-05-10T15:28:05.393Z,18.06
2023-05-10T15:31:07.179Z,18.11
2023-05-10T15:34:09.166Z,18.08
2023-05-10T15:37:11.054Z,18.02
2023-05-10T15:40:13.109Z,17.93
2023-05-10T15:43:15.140Z,17.97
2023-05-10T15:46:16.985Z,18.09
2023-05-10T15:49:18.846Z,18.17
2023-05-10T15:52:21.641Z,18.22
2023-05-10T15:55:23.738Z,18.06
2023-05-10T15:58:25.808Z,17.99
2023-05-10T16:01:28.439Z,17.94
2023-05-10T16:04:31.288Z,18.07
2023-05-10T16:07:33.878Z,18.04
2023-05-10T16:10:35.673Z,18.01
2023-05-10T16:13:38.156Z,18.12
2023-05-10T16:16:40.292Z,18.09
2023-05-10T16:19:42.331Z,17.90
2023-05-10T16:22:44.892Z,17.84
2023-05-10T16:25:47.949Z,17.85
2023-05-10T16:28:49.780Z,17.71
2023-05-10T16:31:51.846Z,17.61
2023-05-10T16:34:53.897Z,17.53
2023-05-10T16:37:56.047Z,17.57
2023-05-10T16:40:57.840Z,17.52
2023-05-10T16:44:00.299Z,17.50
2023-05-10T16:47:03.180Z,17.45
2023-05-10T16:50:06.349Z,17.55
2023-05-10T16:53:08.148Z,17.66
2023-05-10T16:56:10.498Z,17.61
2023-05-10T16:59:12.192Z,17.58
2023-05-10T17:02:14.653Z,17.51
2023-05-10T17:05:16.767Z,17.47
2023-05-10T17:08:18.598Z,17.32
2023-05-10T17:11:21.873Z,17.34
2023-05-10T17:14:24.077Z,17.26
2023-05-10T17:17:25.909Z,17.21
2023-05-10T17:20:27.858Z,17.17
2023-05-10T17:23:30.450Z,17.14
2023-05-10T17:26:32.234Z,17.21
2023-05-10T17:29:34.064Z,17.21
2023-05-10T17:32:36.210Z,16.97
2023-05-10T17:35:38.128Z,16.86
2023-05-10T17:38:39.903Z,16.88
2023-05-10T17:41:41.789Z,16.87
2023-05-10T17:44:44.008Z,16.80
2023-05-10T17:47:46.436Z,16.65
2023-05-10T17:50:51.017Z,16.59
2023-05-10T17:53:53.361Z,16.49
2023-05-10T17:56:55.143Z,16.40
2023-05-10T17:59:57.124Z,16.41
2023-05-10T18:02:59.033Z,16.29
2023-05-10T18:06:00.951Z,16.25
2023-05-10T18:09:04.286Z,16.14
2023-05-10T18:12:06.191Z,16.23
2023-05-10T18:15:08.499Z,16.20
2023-05-10T18:18:11.053Z,16.20
2023-05-10T18:21:15.403Z,16.18
2023-05-10T18:24:30.047Z,16.10
2023-05-10T18:27:39.256Z,15.98
2023-05-10T18:30:41.435Z,15.92
2023-05-10T18:33:43.246Z,15.87
2023-05-10T18:36:45.174Z,15.78
2023-05-10T18:39:46.960Z,15.74
2023-05-10T18:42:50.217Z,15.73
2023-05-10T18:45:52.584Z,15.65
2023-05-10T18:48:55.162Z,15.60
2023-05-10T18:51:57.198Z,15.58
2023-05-10T18:54:58.936Z,15.39
2023-05-10T18:58:00.669Z,15.39
2023-05-10T19:01:02.534Z,15.37
2023-05-10T19:04:04.479Z,15.28
2023-05-10T19:07:06.557Z,15.26
2023-05-10T19:10:08.624Z,15.21
2023-05-10T19:13:10.606Z,15.02
2023-05-10T19:16:15.960Z,14.97
2023-05-10T19:19:23.595Z,14.93
2023-05-10T19:22:43.555Z,14.94
2023-05-10T19:25:50.013Z,14.81
2023-05-10T19:28:52.425Z,14.82
2023-05-10T19:31:54.346Z,14.64
2023-05-10T19:34:56.757Z,14.62
2023-05-10T19:37:58.678Z,14.58
2023-05-10T19:41:00.788Z,14.54
2023-05-10T19:44:02.750Z,14.52
2023-05-10T19:47:05.331Z,14.37
2023-05-10T19:50:07.790Z,14.35
2023-05-10T19:53:09.983Z,14.37
2023-05-10T19:56:12.713Z,14.25
2023-05-10T19:59:14.543Z,14.15
2023-05-10T20:02:16.615Z,14.15
2023-05-10T20:05:18.609Z,14.14
2023-05-10T20:08:20.653Z,14.13
2023-05-10T20:11:22.514Z,14.13
2023-05-10T20:14:25.555Z,14.11
2023-05-10T20:17:27.319Z,14.08
2023-05-10T20:20:29.728Z,14.01
2023-05-10T20:23:31.525Z,13.98
2023-05-10T20:26:34.006Z,13.96
2023-05-10T20:29:35.912Z,13.91
2023-05-10T20:32:38.270Z,13.89
2023-05-10T20:35:40.128Z,13.90
2023-05-10T20:38:41.962Z,13.85
2023-05-10T20:41:43.830Z,13.76
2023-05-10T20:44:45.631Z,13.75
2023-05-10T20:47:47.474Z,13.59
2023-05-10T20:50:49.261Z,13.67
2023-05-10T20:53:51.772Z,13.69
2023-05-10T20:56:53.624Z,13.76
2023-05-10T20:59:55.392Z,13.80
2023-05-10T21:02:57.226Z,13.74
2023-05-10T21:05:58.999Z,13.83
2023-05-10T21:09:00.766Z,13.81
2023-05-10T21:12:03.403Z,13.72
2023-05-10T21:15:05.536Z,13.64
2023-05-10T21:18:07.401Z,13.54
2023-05-10T21:21:09.172Z,13.54
2023-05-10T21:24:10.995Z,13.59
2023-05-10T21:27:12.984Z,13.57
2023-05-10T21:30:14.979Z,13.58
2023-05-10T21:33:16.740Z,13.57
2023-05-10T21:36:18.548Z,13.45
2023-05-10T21:39:20.386Z,13.39
2023-05-10T21:42:22.106Z,13.43
2023-05-10T21:45:23.985Z,13.44
2023-05-10T21:48:25.782Z,13.45
2023-05-10T21:51:29.192Z,13.28
2023-05-10T21:54:31.028Z,13.31
2023-05-10T21:57:32.780Z,13.38
2023-05-10T22:00:34.544Z,13.40
2023-05-10T22:03:36.395Z,13.19
2023-05-10T22:06:38.206Z,13.21
2023-05-10T22:09:39.922Z,13.25
2023-05-10T22:12:41.651Z,13.28
2023-05-10T22:15:44.452Z,13.28
2023-05-10T22:18:46.352Z,13.30
2023-05-10T22:21:48.183Z,13.17
2023-05-10T22:24:49.944Z,13.22
2023-05-10T22:27:51.692Z,13.24
2023-05-10T22:30:53.731Z,13.29
2023-05-10T22:33:55.488Z,13.26
2023-05-10T22:36:57.320Z,13.17
2023-05-10T22:39:59.021Z,13.03
2023-05-10T22:43:01.034Z,13.00
2023-05-10T22:46:02.971Z,13.05
2023-05-10T22:49:04.839Z,13.06
2023-05-10T22:52:06.601Z,13.08
2023-05-10T22:55:09.038Z,13.11
2023-05-10T22:58:11.053Z,13.04
2023-05-10T23:01:12.743Z,13.09
2023-05-10T23:04:15.225Z,13.10
2023-05-10T23:07:17.719Z,13.05
2023-05-10T23:10:20.317Z,12.99
2023-05-10T23:13:22.198Z,12.92
2023-05-10T23:16:23.925Z,12.85
2023-05-10T23:19:25.700Z,12.72
2023-05-10T23:22:27.448Z,12.76
2023-05-10T23:25:29.271Z,12.77
2023-05-10T23:28:31.657Z,12.74
2023-05-10T23:31:33.485Z,12.76
2023-05-10T23:34:35.279Z,12.69
2023-05-10T23:37:37.125Z,12.59
2023-05-10T23:40:39.006Z,12.58
2023-05-10T23:43:40.898Z,12.63
2023-05-10T23:46:42.703Z,12.57
2023-05-10T23:49:44.532Z,12.47
2023-05-10T23:52:46.207Z,12.49
2023-05-10T23:55:47.980Z,12.35
2023-05-10T23:58:49.816Z,12.22
